This is the latest recevied weather packets stored in our database for station/object KK7ISX. If no packets are shown the sender has not sent any weather packets the latest 10 day(s).
| Time | Temp. | Humidity | Pressure | Rain* | Wind** | Luminosity | Snow |
|---|---|---|---|---|---|---|---|
| 1777921946 | 22.78° C | 38% | 1007.7 hPa | 0 mm | - | 762 W/m² | - |
| 1777921641 | 22.22° C | 37% | 1007.6 hPa | 0 mm | - | 761 W/m² | - |
| 1777921339 | 22.22° C | 37% | 1007.8 hPa | 0 mm | - | 761 W/m² | - |
| 1777921035 | 22.78° C | 38% | 1007.7 hPa | 0 mm | - | 762 W/m² | - |
| 1777920123 | 21.67° C | 39% | 1007.9 hPa | 0 mm | - | 761 W/m² | - |
| 1777919820 | 21.67° C | 38% | 1007.9 hPa | 0 mm | - | 759 W/m² | - |
| 1777919516 | 22.22° C | 39% | 1008.1 hPa | 0 mm | - | 759 W/m² | - |
| 1777919214 | 21.67° C | 39% | 1008.3 hPa | 0 mm | - | 756 W/m² | - |
| 1777918306 | 21.67° C | 39% | 1008.3 hPa | 0 mm | - | 748 W/m² | - |
| 1777918005 | 21.11° C | 39% | 1008.4 hPa | 0 mm | - | 743 W/m² | - |
| 1777917703 | 20.56° C | 39% | 1008.3 hPa | 0 mm | - | 737 W/m² | - |
| 1777917097 | 21.11° C | 40% | 1008.4 hPa | 0 mm | - | 722 W/m² | - |
| 1777916190 | 20° C | 43% | 1008.5 hPa | 0 mm | - | 692 W/m² | - |
| 1777915887 | 20° C | 45% | 1008.5 hPa | 0 mm | - | 682 W/m² | - |
| 1777915583 | 20° C | 45% | 1008.5 hPa | 0 mm | - | 673 W/m² | - |
| 1777915280 | 20° C | 45% | 1008.7 hPa | 0 mm | - | 659 W/m² | - |
| 1777914067 | 18.89° C | 45% | 1008.9 hPa | 0 mm | - | 614 W/m² | - |
| 1777912245 | 17.78° C | 48% | 1008.7 hPa | 0 mm | - | 540 W/m² | - |
| 1777907089 | 15.56° C | 56% | 1008.7 hPa | 0 mm | - | 250 W/m² | - |
| 1777906787 | 15° C | 55% | 1009 hPa | 0 mm | - | 234 W/m² | - |
| 1777906484 | 15° C | 57% | 1008.9 hPa | 0 mm | - | 221 W/m² | - |
| 1777906180 | 14.44° C | 60% | 1008.7 hPa | 0 mm | - | 206 W/m² | - |
| 1777905877 | 15° C | 60% | 1008.9 hPa | 0 mm | - | 193 W/m² | - |
| 1777905573 | 14.44° C | 61% | 1009.1 hPa | 0 mm | - | 172 W/m² | - |
| 1777905271 | 13.89° C | 60% | 1009 hPa | 0 mm | - | 66 W/m² | - |
* Rain latest hour (hover to see other rain measurements)
** Current wind speed in m/s (hover to see current wind gust speed)